createdAt,value
2023-05-14T00:00:31.338Z,3.90
2023-05-14T00:02:58.685Z,3.53
2023-05-14T00:05:26.072Z,3.87
2023-05-14T00:07:53.372Z,3.70
2023-05-14T00:10:21.974Z,3.60
2023-05-14T00:12:49.500Z,3.67
2023-05-14T00:15:16.780Z,3.53
2023-05-14T00:17:43.999Z,3.50
2023-05-14T00:20:12.250Z,3.30
2023-05-14T00:22:40.112Z,3.70
2023-05-14T00:25:07.839Z,4.00
2023-05-14T00:27:35.275Z,3.40
2023-05-14T00:30:02.479Z,3.53
2023-05-14T00:32:29.785Z,3.50
2023-05-14T00:34:57.001Z,3.47
2023-05-14T00:37:24.166Z,3.37
2023-05-14T00:39:52.549Z,3.30
2023-05-14T00:42:20.286Z,3.27
2023-05-14T00:44:47.478Z,3.30
2023-05-14T00:47:14.984Z,3.27
2023-05-14T00:49:43.551Z,3.30
2023-05-14T00:52:11.767Z,3.17
2023-05-14T00:54:39.045Z,3.43
2023-05-14T00:57:07.342Z,3.53
2023-05-14T00:59:34.539Z,3.67
2023-05-14T01:02:01.937Z,3.60
2023-05-14T01:04:29.166Z,3.67
2023-05-14T01:07:08.378Z,4.07
2023-05-14T01:09:54.686Z,3.60
2023-05-14T01:12:45.212Z,3.67
2023-05-14T01:15:15.457Z,4.13
2023-05-14T01:17:47.808Z,4.30
2023-05-14T01:20:15.466Z,4.80
2023-05-14T01:22:42.681Z,4.10
2023-05-14T01:25:10.000Z,4.97
2023-05-14T01:27:40.884Z,4.90
2023-05-14T01:30:11.221Z,4.60
2023-05-14T01:32:39.795Z,6.50
2023-05-14T01:35:07.369Z,8.60
2023-05-14T01:37:35.793Z,6.20
2023-05-14T01:40:03.422Z,5.20
2023-05-14T01:42:30.865Z,4.20
2023-05-14T01:44:58.143Z,3.70
2023-05-14T01:47:25.373Z,3.50
2023-05-14T01:49:52.616Z,3.23
2023-05-14T01:52:21.236Z,3.20
2023-05-14T01:54:48.983Z,3.13
2023-05-14T01:57:16.298Z,3.00
2023-05-14T01:59:43.518Z,3.30
2023-05-14T02:02:10.717Z,3.30
2023-05-14T02:04:37.912Z,3.20
2023-05-14T02:07:05.280Z,2.97
2023-05-14T02:09:32.418Z,3.30
2023-05-14T02:11:59.592Z,3.20
2023-05-14T02:14:26.760Z,3.67
2023-05-14T02:16:53.954Z,3.20
2023-05-14T02:19:21.176Z,3.23
2023-05-14T02:21:49.075Z,3.10
2023-05-14T02:24:16.308Z,3.47
2023-05-14T02:26:43.517Z,3.50
2023-05-14T02:29:10.992Z,3.00
2023-05-14T02:31:38.283Z,3.43
2023-05-14T02:34:06.785Z,3.60
2023-05-14T02:36:33.975Z,3.53
2023-05-14T02:39:01.229Z,3.17
2023-05-14T02:41:29.594Z,3.30
2023-05-14T02:43:56.875Z,3.10
2023-05-14T02:46:24.167Z,3.20
2023-05-14T02:48:51.382Z,3.20
2023-05-14T02:51:19.749Z,3.47
2023-05-14T02:53:46.938Z,3.30
2023-05-14T02:56:14.141Z,3.30
2023-05-14T02:58:41.428Z,3.20
2023-05-14T03:01:08.802Z,3.27
2023-05-14T03:03:36.674Z,3.20
2023-05-14T03:06:04.227Z,3.13
2023-05-14T03:08:31.429Z,3.47
2023-05-14T03:10:58.586Z,3.07
2023-05-14T03:13:25.734Z,3.27
2023-05-14T03:15:55.067Z,3.30
2023-05-14T03:18:22.409Z,3.37
2023-05-14T03:20:49.640Z,3.20
2023-05-14T03:23:17.023Z,3.07
2023-05-14T03:25:44.172Z,3.40
2023-05-14T03:28:11.355Z,3.10
2023-05-14T03:30:38.596Z,2.90
2023-05-14T03:33:05.924Z,2.93
2023-05-14T03:35:33.188Z,3.30
2023-05-14T03:38:00.406Z,3.40
2023-05-14T03:40:27.625Z,3.17
2023-05-14T03:42:56.021Z,3.10
2023-05-14T03:45:23.315Z,3.30
2023-05-14T03:47:50.531Z,3.40
2023-05-14T03:50:17.752Z,3.50
2023-05-14T03:52:45.892Z,3.27
2023-05-14T03:55:13.058Z,3.20
2023-05-14T03:57:41.457Z,3.40
2023-05-14T04:00:08.975Z,3.43
2023-05-14T04:02:36.263Z,3.50
2023-05-14T04:05:04.288Z,3.27
2023-05-14T04:07:31.471Z,3.20
2023-05-14T04:10:01.122Z,3.13
2023-05-14T04:12:29.794Z,3.00
2023-05-14T04:14:57.692Z,3.37
2023-05-14T04:17:24.915Z,3.17
2023-05-14T04:19:52.085Z,3.10
2023-05-14T04:22:19.298Z,3.20
2023-05-14T04:24:46.463Z,3.10
2023-05-14T04:27:21.003Z,3.13
2023-05-14T04:29:48.503Z,3.10
2023-05-14T04:32:15.735Z,3.57
2023-05-14T04:34:42.893Z,3.10
2023-05-14T04:37:10.140Z,3.30
2023-05-14T04:39:37.440Z,3.17
2023-05-14T04:42:04.784Z,3.03
2023-05-14T04:44:31.951Z,3.07
2023-05-14T04:46:59.161Z,2.90
2023-05-14T04:49:26.299Z,3.03
2023-05-14T04:51:53.470Z,3.20
2023-05-14T04:54:20.773Z,3.17
2023-05-14T04:56:48.081Z,3.17
2023-05-14T04:59:16.406Z,2.97
2023-05-14T05:01:43.699Z,3.40
2023-05-14T05:04:11.118Z,3.00
2023-05-14T05:06:38.387Z,3.03
2023-05-14T05:09:05.568Z,3.33
2023-05-14T05:11:32.794Z,3.03
2023-05-14T05:13:59.946Z,3.23
2023-05-14T05:16:27.344Z,3.10
2023-05-14T05:18:54.711Z,3.07
2023-05-14T05:21:22.124Z,3.20
2023-05-14T05:23:49.287Z,3.20
2023-05-14T05:26:16.737Z,3.10
2023-05-14T05:28:43.907Z,3.30
2023-05-14T05:31:11.116Z,3.10
2023-05-14T05:33:38.349Z,3.27
2023-05-14T05:36:05.662Z,2.90
2023-05-14T05:38:32.887Z,3.20
2023-05-14T05:41:00.125Z,3.00
2023-05-14T05:43:28.564Z,2.87
2023-05-14T05:45:55.720Z,2.90
2023-05-14T05:48:22.890Z,2.93
2023-05-14T05:50:50.578Z,3.13
2023-05-14T05:53:17.754Z,2.90
2023-05-14T05:55:45.041Z,2.80
2023-05-14T05:58:13.995Z,2.70
2023-05-14T06:00:41.228Z,2.97
2023-05-14T06:03:08.543Z,2.57
2023-05-14T06:05:35.843Z,2.57
2023-05-14T06:08:03.085Z,3.00
2023-05-14T06:10:30.254Z,2.90
2023-05-14T06:12:57.495Z,3.03
2023-05-14T06:15:24.754Z,3.00
2023-05-14T06:17:51.956Z,3.03
2023-05-14T06:20:19.666Z,2.80
2023-05-14T06:22:46.802Z,2.83
2023-05-14T06:25:13.986Z,3.00
2023-05-14T06:27:41.254Z,2.93
2023-05-14T06:30:08.846Z,3.03
2023-05-14T06:32:36.029Z,2.87
2023-05-14T06:35:03.217Z,2.90
2023-05-14T06:37:30.406Z,3.00
2023-05-14T06:39:58.121Z,2.90
2023-05-14T06:42:26.399Z,3.00
2023-05-14T06:44:54.544Z,3.20
2023-05-14T06:47:21.689Z,3.17
2023-05-14T06:49:48.825Z,3.23
2023-05-14T06:52:16.003Z,2.97
2023-05-14T06:54:43.159Z,3.00
2023-05-14T06:57:10.497Z,2.93
2023-05-14T06:59:38.055Z,3.20
2023-05-14T07:02:05.248Z,3.00
2023-05-14T07:04:32.539Z,3.10
2023-05-14T07:06:59.777Z,3.30
2023-05-14T07:09:26.945Z,3.13
2023-05-14T07:11:54.107Z,3.30
2023-05-14T07:14:21.389Z,3.10
2023-05-14T07:16:48.626Z,3.43
2023-05-14T07:19:15.911Z,3.10
2023-05-14T07:21:43.079Z,3.30
2023-05-14T07:24:10.288Z,2.97
2023-05-14T07:26:37.485Z,3.27
2023-05-14T07:29:04.691Z,3.00
2023-05-14T07:31:32.458Z,3.27
2023-05-14T07:33:59.716Z,3.13
2023-05-14T07:36:27.367Z,3.03
2023-05-14T07:38:54.621Z,2.83
2023-05-14T07:41:21.923Z,3.30
2023-05-14T07:43:49.301Z,3.27
2023-05-14T07:46:16.576Z,3.23
2023-05-14T07:48:43.802Z,3.10
2023-05-14T07:51:11.857Z,3.40
2023-05-14T07:53:39.151Z,2.90
2023-05-14T07:56:06.566Z,3.10
2023-05-14T07:58:35.085Z,2.90
2023-05-14T08:01:04.172Z,3.37
2023-05-14T08:03:31.395Z,3.40
2023-05-14T08:05:58.736Z,3.60
2023-05-14T08:08:27.313Z,2.97
2023-05-14T08:10:54.505Z,3.10
2023-05-14T08:13:21.741Z,3.50
2023-05-14T08:15:48.900Z,3.40
2023-05-14T08:18:16.167Z,3.30
2023-05-14T08:20:43.445Z,3.40
2023-05-14T08:23:10.596Z,3.20
2023-05-14T08:25:37.761Z,3.30
2023-05-14T08:28:05.148Z,3.73
2023-05-14T08:30:32.346Z,3.23
2023-05-14T08:33:00.026Z,3.30
2023-05-14T08:35:27.297Z,3.40
2023-05-14T08:37:54.522Z,3.57
2023-05-14T08:40:21.988Z,3.20
2023-05-14T08:42:49.641Z,3.20
2023-05-14T08:45:16.764Z,3.28
2023-05-14T08:47:45.497Z,3.23
2023-05-14T08:50:12.828Z,3.20
2023-05-14T08:52:40.239Z,3.20
2023-05-14T08:55:07.923Z,3.20
2023-05-14T08:57:35.288Z,3.28
2023-05-14T09:00:08.243Z,3.10
2023-05-14T09:02:36.186Z,3.30
2023-05-14T09:05:04.146Z,3.20
2023-05-14T09:07:31.392Z,3.35
2023-05-14T09:09:58.652Z,3.05
2023-05-14T09:12:26.195Z,3.30
2023-05-14T09:14:53.437Z,3.10
2023-05-14T09:17:21.027Z,3.20
2023-05-14T09:19:49.255Z,3.20
2023-05-14T09:22:17.584Z,3.33
2023-05-14T09:24:45.035Z,2.90
2023-05-14T09:27:21.815Z,3.25
2023-05-14T09:29:49.151Z,3.50
2023-05-14T09:32:16.301Z,3.40
2023-05-14T09:34:43.533Z,3.42
2023-05-14T09:37:10.815Z,3.22
2023-05-14T09:39:38.928Z,3.25
2023-05-14T09:42:06.519Z,3.38
2023-05-14T09:44:33.783Z,3.40
2023-05-14T09:47:01.058Z,3.17
2023-05-14T09:49:28.422Z,3.20
2023-05-14T09:51:57.896Z,2.95
2023-05-14T09:54:27.395Z,3.55
2023-05-14T09:56:55.717Z,3.17
2023-05-14T09:59:23.252Z,3.13
2023-05-14T10:01:50.774Z,3.30
2023-05-14T10:04:18.379Z,3.33
2023-05-14T10:06:48.109Z,3.55
2023-05-14T10:09:17.482Z,3.50
2023-05-14T10:11:46.279Z,3.30
2023-05-14T10:14:33.782Z,3.45
2023-05-14T10:17:02.255Z,3.30
2023-05-14T10:19:31.996Z,3.00
2023-05-14T10:22:04.504Z,3.47
2023-05-14T10:24:32.294Z,3.47
2023-05-14T10:26:59.538Z,3.33
2023-05-14T10:29:34.194Z,3.60
2023-05-14T10:32:04.691Z,3.53
2023-05-14T10:34:32.614Z,3.30
2023-05-14T10:37:02.585Z,3.28
2023-05-14T10:39:42.033Z,2.75
2023-05-14T10:42:09.489Z,3.08
2023-05-14T10:44:36.731Z,2.78
2023-05-14T10:47:04.232Z,3.00
2023-05-14T10:49:42.904Z,2.65
2023-05-14T10:52:11.727Z,2.75
2023-05-14T10:54:39.297Z,2.42
2023-05-14T10:57:10.948Z,2.80
2023-05-14T10:59:38.255Z,2.70
2023-05-14T11:02:19.474Z,2.38
2023-05-14T11:05:05.886Z,2.75
2023-05-14T11:07:36.883Z,2.60
2023-05-14T11:10:04.374Z,2.78
2023-05-14T11:12:31.802Z,2.65
2023-05-14T11:14:59.484Z,2.53
2023-05-14T11:17:27.478Z,2.72
2023-05-14T11:19:55.137Z,2.65
2023-05-14T11:22:22.656Z,2.55
2023-05-14T11:24:49.889Z,2.47
2023-05-14T11:27:17.961Z,2.70
2023-05-14T11:29:48.830Z,2.80
2023-05-14T11:32:16.615Z,2.30
2023-05-14T11:34:47.358Z,2.60
2023-05-14T11:37:15.531Z,2.80
2023-05-14T11:39:55.131Z,2.90
2023-05-14T11:42:22.634Z,2.50
2023-05-14T11:44:51.843Z,2.60
2023-05-14T11:47:19.937Z,2.60
2023-05-14T11:49:47.593Z,2.85
2023-05-14T11:52:15.479Z,2.83
2023-05-14T11:54:44.274Z,2.70
2023-05-14T11:57:12.773Z,2.90
2023-05-14T11:59:40.556Z,2.70
2023-05-14T12:02:11.338Z,2.67
2023-05-14T12:04:38.669Z,2.72
2023-05-14T12:07:13.429Z,2.92
2023-05-14T12:09:49.334Z,3.00
2023-05-14T12:12:18.343Z,2.75
2023-05-14T12:14:45.677Z,2.88
2023-05-14T12:17:22.901Z,3.17
2023-05-14T12:19:51.375Z,3.30
2023-05-14T12:22:23.518Z,3.20
2023-05-14T12:24:57.630Z,3.00
2023-05-14T12:27:26.282Z,2.80
2023-05-14T12:30:16.865Z,3.10
2023-05-14T12:32:47.119Z,3.92
2023-05-14T12:35:14.356Z,3.70
2023-05-14T12:37:42.597Z,3.15
2023-05-14T12:40:10.235Z,2.78
2023-05-14T12:42:37.709Z,3.05
2023-05-14T12:45:07.861Z,2.50
2023-05-14T12:47:36.077Z,2.70
2023-05-14T12:50:03.586Z,2.55
2023-05-14T12:55:01.493Z,2.50
2023-05-14T12:57:30.216Z,2.28
2023-05-14T12:59:57.737Z,2.58
2023-05-14T13:02:25.029Z,2.10
2023-05-14T13:04:52.206Z,2.28
2023-05-14T13:07:19.389Z,2.40
2023-05-14T13:09:46.595Z,2.30
2023-05-14T13:12:13.775Z,2.20
2023-05-14T13:14:40.980Z,2.20
2023-05-14T13:17:08.377Z,2.10
2023-05-14T13:19:35.744Z,2.05
2023-05-14T13:22:02.905Z,2.08
2023-05-14T13:24:30.065Z,2.20
2023-05-14T13:26:57.234Z,2.03
2023-05-14T13:29:24.903Z,2.42
2023-05-14T13:31:53.035Z,2.00
2023-05-14T13:34:20.246Z,2.38
2023-05-14T13:36:49.329Z,2.20
2023-05-14T13:39:16.556Z,2.20
2023-05-14T13:41:43.864Z,2.35
2023-05-14T13:44:11.034Z,2.40
2023-05-14T13:46:38.218Z,2.17
2023-05-14T13:49:05.448Z,2.30
2023-05-14T13:51:32.667Z,2.17
2023-05-14T13:53:59.877Z,2.40
2023-05-14T13:56:27.063Z,2.30
2023-05-14T13:58:54.231Z,2.42
2023-05-14T14:01:21.961Z,2.40
2023-05-14T14:03:49.572Z,2.10
2023-05-14T14:06:16.754Z,2.50
2023-05-14T14:08:43.924Z,2.20
2023-05-14T14:11:11.120Z,2.40
2023-05-14T14:13:38.297Z,2.40
2023-05-14T14:16:06.291Z,2.30
2023-05-14T14:18:33.595Z,2.33
2023-05-14T14:21:00.864Z,2.40
2023-05-14T14:23:28.100Z,2.30
2023-05-14T14:25:55.254Z,2.15
2023-05-14T14:28:22.422Z,2.20
2023-05-14T14:30:49.665Z,2.28
2023-05-14T14:33:16.836Z,2.40
2023-05-14T14:35:44.008Z,2.40
2023-05-14T14:38:11.256Z,2.50
2023-05-14T14:40:38.492Z,2.58
2023-05-14T14:43:05.787Z,2.40
2023-05-14T14:45:33.051Z,2.45
2023-05-14T14:48:23.825Z,2.17
2023-05-14T14:50:51.990Z,2.38
2023-05-14T14:53:22.454Z,2.05
2023-05-14T14:55:50.013Z,2.58
2023-05-14T14:58:17.422Z,2.53
2023-05-14T15:00:45.589Z,2.13
2023-05-14T15:03:14.899Z,2.70
2023-05-14T15:05:42.404Z,2.38
2023-05-14T15:08:09.660Z,2.30
2023-05-14T15:10:38.349Z,2.50
2023-05-14T15:13:06.513Z,2.38
2023-05-14T15:15:34.385Z,2.40
2023-05-14T15:18:01.753Z,2.30
2023-05-14T15:20:29.114Z,2.25
2023-05-14T15:22:56.739Z,2.45
2023-05-14T15:25:25.115Z,2.17
2023-05-14T15:27:52.569Z,2.20
2023-05-14T15:30:19.981Z,2.17
2023-05-14T15:32:47.402Z,2.10
2023-05-14T15:35:14.770Z,2.17
2023-05-14T15:37:43.450Z,2.22
2023-05-14T15:40:11.400Z,1.92
2023-05-14T15:42:39.437Z,1.88
2023-05-14T15:45:06.775Z,2.00
2023-05-14T15:47:34.003Z,1.98
2023-05-14T15:50:01.264Z,1.88
2023-05-14T15:52:28.512Z,2.17
2023-05-14T15:54:57.377Z,1.80
2023-05-14T15:57:24.618Z,1.90
2023-05-14T15:59:52.151Z,1.95
2023-05-14T16:02:19.404Z,2.05
2023-05-14T16:04:46.560Z,1.98
2023-05-14T16:07:14.265Z,2.00
2023-05-14T16:09:41.457Z,1.80
2023-05-14T16:12:09.121Z,2.10
2023-05-14T16:14:36.799Z,1.90
2023-05-14T16:17:04.106Z,2.10
2023-05-14T16:19:31.266Z,2.00
2023-05-14T16:21:58.446Z,1.95
2023-05-14T16:24:25.673Z,2.33
2023-05-14T16:26:52.906Z,2.30
2023-05-14T16:29:20.132Z,2.58
2023-05-14T16:31:47.327Z,2.03
2023-05-14T16:34:14.676Z,2.00
2023-05-14T16:36:41.948Z,2.00
2023-05-14T16:39:09.548Z,2.00
2023-05-14T16:41:36.856Z,2.05
2023-05-14T16:44:04.120Z,1.88
2023-05-14T16:46:32.158Z,2.53
2023-05-14T16:48:59.618Z,2.00
2023-05-14T16:51:26.842Z,2.33
2023-05-14T16:53:55.456Z,2.25
2023-05-14T16:56:23.272Z,2.20
2023-05-14T16:58:50.465Z,2.00
2023-05-14T17:01:17.758Z,2.20
2023-05-14T17:03:45.682Z,3.22
2023-05-14T17:06:12.937Z,2.10
2023-05-14T17:08:40.097Z,2.10
2023-05-14T17:11:07.294Z,2.10
2023-05-14T17:13:34.463Z,1.98
2023-05-14T17:16:02.276Z,2.00
2023-05-14T17:18:29.886Z,2.30
2023-05-14T17:20:57.185Z,2.40
2023-05-14T17:23:24.388Z,2.20
2023-05-14T17:25:51.625Z,2.10
2023-05-14T17:28:18.884Z,2.20
2023-05-14T17:30:46.153Z,2.00
2023-05-14T17:33:13.386Z,2.20
2023-05-14T17:35:40.698Z,2.20
2023-05-14T17:38:07.879Z,2.03
2023-05-14T17:40:35.200Z,2.10
2023-05-14T17:43:02.432Z,2.20
2023-05-14T17:45:39.457Z,2.22
2023-05-14T17:48:13.948Z,2.30
2023-05-14T17:50:41.346Z,2.28
2023-05-14T17:53:08.612Z,2.60
2023-05-14T17:55:43.213Z,2.20
2023-05-14T17:58:13.374Z,2.40
2023-05-14T18:00:40.831Z,2.50
2023-05-14T18:03:08.394Z,2.40
2023-05-14T18:05:35.765Z,2.58
2023-05-14T18:08:03.284Z,2.22
2023-05-14T18:10:30.558Z,2.53
2023-05-14T18:12:57.736Z,2.45
2023-05-14T18:15:27.291Z,2.70
2023-05-14T18:17:54.820Z,2.72
2023-05-14T18:20:22.172Z,2.60
2023-05-14T18:22:50.700Z,2.50
2023-05-14T18:25:17.985Z,2.63
2023-05-14T18:27:45.475Z,2.60
2023-05-14T18:30:14.364Z,2.72
2023-05-14T18:32:42.322Z,2.50
2023-05-14T18:35:09.767Z,2.42
2023-05-14T18:37:36.990Z,2.70
2023-05-14T18:40:07.454Z,2.30
2023-05-14T18:42:35.064Z,2.70
2023-05-14T18:45:02.337Z,2.60
2023-05-14T18:47:29.593Z,2.80
2023-05-14T18:49:59.243Z,2.40
2023-05-14T18:52:26.709Z,2.55
2023-05-14T18:54:54.864Z,2.55
2023-05-14T18:57:22.523Z,2.65
2023-05-14T18:59:49.783Z,2.85
2023-05-14T19:02:17.083Z,3.10
2023-05-14T19:04:52.325Z,2.93
2023-05-14T19:07:20.871Z,2.70
2023-05-14T19:09:48.220Z,2.80
2023-05-14T19:12:16.625Z,2.83
2023-05-14T19:14:43.849Z,2.80
2023-05-14T19:17:11.354Z,2.87
2023-05-14T19:19:39.365Z,2.70
2023-05-14T19:22:06.738Z,2.97
2023-05-14T19:24:34.023Z,2.80
2023-05-14T19:27:01.391Z,2.70
2023-05-14T19:29:28.719Z,3.10
2023-05-14T19:31:56.075Z,2.63
2023-05-14T19:34:23.396Z,2.70
2023-05-14T19:36:50.726Z,2.80
2023-05-14T19:39:17.923Z,3.00
2023-05-14T19:41:45.209Z,2.80
2023-05-14T19:44:12.457Z,2.90
2023-05-14T19:46:39.712Z,2.93
2023-05-14T19:49:06.921Z,2.83
2023-05-14T19:51:34.137Z,3.07
2023-05-14T19:54:01.342Z,2.70
2023-05-14T19:56:28.519Z,3.00
2023-05-14T19:58:55.687Z,2.80
2023-05-14T20:01:22.955Z,3.07
2023-05-14T20:03:50.391Z,3.10
2023-05-14T20:06:18.419Z,3.20
2023-05-14T20:08:45.625Z,3.10
2023-05-14T20:11:12.962Z,3.00
2023-05-14T20:13:40.170Z,2.60
2023-05-14T20:16:07.442Z,3.00
2023-05-14T20:18:34.700Z,3.30
2023-05-14T20:21:01.906Z,3.10
2023-05-14T20:23:29.268Z,3.13
2023-05-14T20:25:56.635Z,2.90
2023-05-14T20:28:23.863Z,3.20
2023-05-14T20:30:51.079Z,3.17
2023-05-14T20:33:18.288Z,3.23
2023-05-14T20:35:45.680Z,3.20
2023-05-14T20:38:13.460Z,3.13
2023-05-14T20:40:40.997Z,3.37
2023-05-14T20:43:08.191Z,2.90
2023-05-14T20:45:35.412Z,3.05
2023-05-14T20:48:02.973Z,3.00
2023-05-14T20:50:30.510Z,3.20
2023-05-14T20:52:57.678Z,2.93
2023-05-14T20:55:24.999Z,3.30
2023-05-14T20:57:52.337Z,3.00
2023-05-14T21:00:19.878Z,3.40
2023-05-14T21:02:49.024Z,2.97
2023-05-14T21:05:17.292Z,3.00
2023-05-14T21:07:44.530Z,3.37
2023-05-14T21:10:11.855Z,3.20
2023-05-14T21:12:39.030Z,3.10
2023-05-14T21:15:06.428Z,3.33
2023-05-14T21:17:33.700Z,3.10
2023-05-14T21:20:00.920Z,3.07
2023-05-14T21:22:28.142Z,3.27
2023-05-14T21:24:56.220Z,3.03
2023-05-14T21:27:23.610Z,3.30
2023-05-14T21:29:50.799Z,3.00
2023-05-14T21:32:19.234Z,3.20
2023-05-14T21:34:46.476Z,3.20
2023-05-14T21:37:13.723Z,3.40
2023-05-14T21:39:40.993Z,3.10
2023-05-14T21:42:08.394Z,3.00
2023-05-14T21:44:35.720Z,3.20
2023-05-14T21:47:02.953Z,3.07
2023-05-14T21:49:30.112Z,3.40
2023-05-14T21:51:57.347Z,3.23
2023-05-14T21:54:24.521Z,3.10
2023-05-14T21:56:51.712Z,3.10
2023-05-14T21:59:18.896Z,3.30
2023-05-14T22:02:05.368Z,3.10
2023-05-14T22:04:33.202Z,3.50
2023-05-14T22:07:00.515Z,3.33
2023-05-14T22:09:27.816Z,3.30
2023-05-14T22:11:55.027Z,3.10
2023-05-14T22:14:22.196Z,3.47
2023-05-14T22:16:49.415Z,3.60
2023-05-14T22:19:17.147Z,3.13
2023-05-14T22:21:44.452Z,3.60
2023-05-14T22:24:11.653Z,3.07
2023-05-14T22:26:38.810Z,3.27
2023-05-14T22:29:05.985Z,3.27
2023-05-14T22:31:33.352Z,3.40
2023-05-14T22:34:00.507Z,3.20
2023-05-14T22:36:27.674Z,3.37
2023-05-14T22:38:54.850Z,3.50
2023-05-14T22:41:22.161Z,3.40
2023-05-14T22:43:49.522Z,3.70
2023-05-14T22:46:16.809Z,3.60
2023-05-14T22:48:44.963Z,3.70
2023-05-14T22:51:12.136Z,3.10
2023-05-14T22:53:39.731Z,3.43
2023-05-14T22:56:07.038Z,3.30
2023-05-14T22:58:34.201Z,3.30
2023-05-14T23:01:01.396Z,3.30
2023-05-14T23:03:28.678Z,3.53
2023-05-14T23:05:55.883Z,3.27
2023-05-14T23:08:23.106Z,3.33
2023-05-14T23:10:50.276Z,3.40
2023-05-14T23:13:17.563Z,3.60
2023-05-14T23:15:44.813Z,3.17
2023-05-14T23:18:12.055Z,3.47
2023-05-14T23:20:39.293Z,3.57
2023-05-14T23:23:06.537Z,3.53
2023-05-14T23:25:33.707Z,3.47
2023-05-14T23:28:00.981Z,3.40
2023-05-14T23:30:28.161Z,3.60
2023-05-14T23:32:55.424Z,3.50
2023-05-14T23:35:23.011Z,3.80
2023-05-14T23:37:51.071Z,3.40
2023-05-14T23:40:18.486Z,3.80
2023-05-14T23:42:46.427Z,3.50
2023-05-14T23:45:13.939Z,3.47
2023-05-14T23:47:41.645Z,3.70
2023-05-14T23:50:08.923Z,3.50
2023-05-14T23:52:36.174Z,3.60
2023-05-14T23:55:04.250Z,3.83
2023-05-14T23:57:31.471Z,3.70
2023-05-14T23:59:59.188Z,3.63
